ADDS METAR Data INFO
IDs: Format: Raw Decoded Include TAF

Data at: 0600 UTC 25 Jun 2018

KUTS 250553Z AUTO 16005KT 10SM SCT024 27/23 A2996 RMK AO2 SLP139 T02670228 10328 20267 403440256 51014
KUTS 250453Z AUTO VRB04KT 10SM CLR 27/23 A2995 RMK AO2 SLP136 T02670228
KUTS 250353Z AUTO VRB03KT 10SM CLR 28/23 A2994 RMK AO2 SLP132 T02780228
KUTS 250253Z AUTO 12003KT 10SM CLR 28/23 A2992 RMK AO2 SLP125 T02830233 51013
KUTS 250153Z AUTO VRB04KT 10SM CLR 29/23 A2991 RMK AO2 SLP122 T02940233
KUTS 250053Z AUTO VRB06G15KT 10SM FEW039 31/23 A2989 RMK AO2 SLP116 T03110228
KUTS 242353Z AUTO 17008G16KT 10SM CLR 33/21 A2988 RMK AO2 SLP112 T03280211 10344 20322 57002
KUTS 242253Z AUTO VRB05G17KT 10SM SCT043 BKN060 33/22 A2988 RMK AO2 SLP114 T03280222
KUTS 242153Z AUTO 17011KT 10SM BKN047 BKN060 BKN075 34/22 A2988 RMK AO2 SLP112 T03390222
KUTS 242053Z AUTO 16009G17KT 120V190 10SM SCT048 BKN060 34/22 A2989 RMK AO2 SLP114 T03390222 58016
KUTS 241953Z AUTO 17012G17KT 10SM FEW046 34/22 A2990 RMK AO2 SLP121 T03440222
KUTS 241853Z AUTO 19007KT 160V230 10SM FEW045 FEW060 33/23 A2992 RMK AO2 SLP127 T03330228
KUTS 241753Z AUTO 17009KT 10SM FEW035 SCT050 33/23 A2993 RMK AO2 SLP131 T03280228 10328 20261 51007
KUTS 241653Z AUTO 16009KT 10SM FEW038 32/23 A2993 RMK AO2 SLP128 T03170233
KUTS 241553Z AUTO 18011G19KT 10SM FEW024 BKN032 OVC043 31/23 A2992 RMK AO2 SLP126 T03060233
KUTS 241543Z AUTO 18013G20KT 10SM SCT024 BKN034 BKN043 31/23 A2992 RMK AO2 T03060233
KUTS 241535Z AUTO 17008G17KT 150V210 10SM BKN024 BKN031 BKN038 31/24 A2992 RMK AO2 T03060239
KUTS 241453Z AUTO 17010G20KT 10SM FEW021 BKN034 30/24 A2991 RMK AO2 SLP124 T03000239 51016
KUTS 241431Z AUTO 18010G18KT 10SM SCT021 SCT028 OVC033 29/24 A2991 RMK AO2 T02940239
KUTS 241353Z AUTO 18012G17KT 10SM BKN021 28/24 A2991 RMK AO2 SLP122 T02780239
KUTS 241253Z AUTO 18007G16KT 10SM BKN016 27/24 A2989 RMK AO2 SLP116 T02670239
KUTS 241153Z AUTO 19010KT 10SM BKN015 26/23 A2986 RMK AO2 SLP107 T02610233 10267 20256 55011
KUTS 241139Z AUTO 19009G18KT 10SM BKN015 26/24 A2987 RMK AO2 T02610239
KUTS 241053Z AUTO 18011KT 10SM FEW016 26/23 A2986 RMK AO2 SLP105 T02560233
KUTS 240953Z AUTO 19008KT 10SM CLR 26/23 A2988 RMK AO2 SLP114 T02560233
KUTS 240853Z AUTO 19008KT 10SM FEW037 26/23 A2990 RMK AO2 SLP118 T02610233 50005
KUTS 240753Z AUTO 19008KT 10SM FEW020 26/23 A2991 RMK AO2 SLP122 T02610233
KUTS 240737Z AUTO 19009G16KT 10SM FEW019 SCT030 27/23 A2991 RMK AO2 T02670233
KUTS 240704Z AUTO 18006KT 10SM BKN021 BKN028 27/23 A2991 RMK AO2 T02670233
KUTS 240653Z AUTO 17005KT 10SM SCT023 27/23 A2990 RMK AO2 SLP120 T02670233
KUTS 240553Z AUTO 17006KT 10SM CLR 27/23 A2988 RMK AO2 SLP113 T02670233 10333 20267 403440244 53020
KUTS 240453Z AUTO 17007KT 10SM CLR 27/23 A2987 RMK AO2 SLP110 T02720233
KUTS 240353Z AUTO 15007KT 100V180 10SM CLR 28/23 A2983 RMK AO2 SLP094 T02780233
KUTS 240253Z AUTO 16006KT 10SM CLR 29/23 A2982 RMK AO2 SLP092 T02890233 53009
KUTS 240153Z AUTO 15007G14KT 10SM FEW046 30/23 A2980 RMK AO2 SLP086 T03000233
KUTS 240053Z AUTO VRB03KT 10SM BKN048 32/24 A2980 RMK AO2 SLP084 T03170239
KUTS 232353Z AUTO 16009KT 10SM BKN046 BKN055 33/23 A2979 RMK AO2 SLP082 T03330228 10344 20317 56013
KUTS 232253Z AUTO 14005G15KT 10SM SCT045 34/23 A2979 RMK AO2 SLP083 T03390228
KUTS 232153Z AUTO 15006G14KT 10SM BKN047 OVC055 33/22 A2982 RMK AO2 SLP091 T03330222
KUTS 232053Z AUTO VRB05KT 10SM FEW048 33/23 A2983 RMK AO2 SLP095 T03330228 56026
KUTS 231953Z AUTO 18009G15KT 10SM FEW044 34/23 A2985 RMK AO2 SLP102 T03440228
KUTS 231853Z AUTO 17008KT 140V210 10SM FEW040 SCT050 33/23 A2988 RMK AO2 SLP111 T03330228